Time;durP1;ratioP1;P1;durP2;ratioP2;P2;SDS_P1;SDS_P2;PMS_P1;PMS_P2;Temp;Humidity;BMP_temperature;BMP_pressure;BME280_temperature;BME280_humidity;BME280_pressure;Samples;Min_cycle;Max_cycle;Signal;HPM_P1;HPM_P2
2021/04/21 00:01:34;;;;;;;;;;;;;;;;;;5093467;28;19916;-75
2021/04/21 00:04:00;;;;;;;;;;;;;;;;;;5093887;28;19912;-75
2021/04/21 00:06:25;;;;;;;;;;;;;;;;;;5091672;28;19957;-75
2021/04/21 00:08:51;;;;;;;;;;;;;;;;;;5092265;28;19958;-75
2021/04/21 00:11:17;;;;;;;;;;;;;;;;;;5092430;28;20273;-75
2021/04/21 00:13:43;;;;;;;;;;;;;;;;;;5093762;28;20003;-75
2021/04/21 00:16:09;;;;;;;;;;;;;;;;;;5093599;28;20049;-75
2021/04/21 00:18:37;;;;;;;;;;;;;;;;;;5093489;28;19959;-75
2021/04/21 00:21:03;;;;;;;;;;;;;;;;;;5093435;28;20378;-75
2021/04/21 00:23:31;;;;;;;;;;;;;;;;;;5093664;28;19919;-75
2021/04/21 00:25:57;;;;;;;;;;;;;;;;;;5093614;28;19951;-75
2021/04/21 00:28:24;;;;;;;;;;;;;;;;;;5091882;28;19992;-75
2021/04/21 00:30:51;;;;;;;;;;;;;;;;;;5093667;28;20339;-75
2021/04/21 00:33:17;;;;;;;;;;;;;;;;;;5093241;28;19956;-74
2021/04/21 00:35:43;;;;;;;;;;;;;;;;;;5093359;28;19916;-74
2021/04/21 00:38:13;;;;;;;;;;;;;;;;;;5092338;28;19915;-75
2021/04/21 00:40:44;;;;;;;;;;;;;;;;;;5092455;28;20285;-74
2021/04/21 00:43:15;;;;;;;;;;;;;;;;;;5092340;28;19916;-75
2021/04/21 00:45:44;;;;;;;;;;;;;;;;;;5093088;28;19912;-74
2021/04/21 00:48:25;;;;;;;;;;;;;;;;;;5093300;28;19923;-74
2021/04/21 00:50:51;;;;;;;;;;;;;;;;;;5093428;28;20262;-74
2021/04/21 00:53:20;;;;;;;;;;;;;;;;;;5093497;28;19927;-75
2021/04/21 00:55:59;;;;;;;;;;;;;;;;;;5091800;28;19915;-75
2021/04/21 00:58:32;;;;;;;;;;;;;;;;;;5093712;28;19962;-75
2021/04/21 01:00:58;;;;;;;;;;;;;;;;;;5095200;28;19920;-75
2021/04/21 01:03:24;;;;;;;;;;;;;;;;;;5096884;28;19965;-75
2021/04/21 01:06:00;;;;;;;;;;;;;;;;;;5096930;28;20364;-76
2021/04/21 01:08:27;;;;;;;;;;;;;;;;;;5097046;28;19951;-75
2021/04/21 01:11:12;;;;;;;;;;;;;;;;;;5094011;28;20380;-75
2021/04/21 01:13:48;;;;;;;;;;;;;;;;;;5097053;28;19965;-75
2021/04/21 01:16:16;;;;;;;;;;;;;;;;;;5078725;28;20365;-74
2021/04/21 01:18:43;;;;;;;;;;;;;;;;;;5096914;28;19919;-74
2021/04/21 01:21:13;;;;;;;;;;;;;;;;;;5096568;28;20343;-74
2021/04/21 01:23:42;;;;;;;;;;;;;;;;;;5096469;28;19935;-74
2021/04/21 01:26:10;;;;;;;;;;;;;;;;;;5096613;28;19912;-75
2021/04/21 01:28:37;;;;;;;;;;;;;;;;;;5096527;28;19912;-74
2021/04/21 01:31:03;;;;;;;;;;;;;;;;;;5096163;28;19974;-75
2021/04/21 01:33:29;;;;;;;;;;;;;;;;;;5096446;28;19948;-75
2021/04/21 01:35:58;;;;;;;;;;;;;;;;;;5096319;28;19912;-75
2021/04/21 01:38:24;;;;;;;;;;;;;;;;;;5096286;28;19962;-74
2021/04/21 01:40:50;;;;;;;;;;;;;;;;;;5095456;28;20319;-75
2021/04/21 01:43:20;;;;;;;;;;;;;;;;;;5096409;28;20281;-74
2021/04/21 01:45:48;;;;;;;;;;;;;;;;;;5096379;28;20002;-75
2021/04/21 01:48:20;;;;;;;;;;;;;;;;;;5096057;28;19911;-75
2021/04/21 01:50:46;;;;;;;;;;;;;;;;;;5096087;28;19919;-74
2021/04/21 01:53:16;;;;;;;;;;;;;;;;;;5094904;28;19919;-74
2021/04/21 01:55:56;;;;;;;;;;;;;;;;;;5095813;28;19911;-75
2021/04/21 01:58:40;;;;;;;;;;;;;;;;;;5096153;28;20353;-75
2021/04/21 02:01:26;;;;;;;;;;;;;;;;;;5095874;28;20354;-75
2021/04/21 02:03:57;;;;;;;;;;;;;;;;;;5090982;28;19911;-74
2021/04/21 02:06:22;;;;;;;;;;;;;;;;;;5096048;28;19938;-75
2021/04/21 02:09:00;;;;;;;;;;;;;;;;;;5095179;28;19998;-75
2021/04/21 02:11:26;;;;;;;;;;;;;;;;;;5094831;28;19919;-75
2021/04/21 02:14:14;;;;;;;;;;;;;;;;;;5095544;28;19957;-75
2021/04/21 02:16:47;;;;;;;;;;;;;;;;;;5095437;28;19922;-75
2021/04/21 02:19:18;;;;;;;;;;;;;;;;;;5095466;28;20406;-75
2021/04/21 02:21:53;;;;;;;;;;;;;;;;;;5095362;28;19916;-75
2021/04/21 02:24:21;;;;;;;;;;;;;;;;;;5095694;28;19919;-75
2021/04/21 02:26:54;;;;;;;;;;;;;;;;;;5095266;28;20002;-75
2021/04/21 02:29:25;;;;;;;;;;;;;;;;;;5094053;28;20004;-75
2021/04/21 02:32:17;;;;;;;;;;;;;;;;;;5093980;28;19962;-75
2021/04/21 02:34:58;;;;;;;;;;;;;;;;;;5078089;28;20066;-75
2021/04/21 02:37:28;;;;;;;;;;;;;;;;;;5095306;28;19970;-75
2021/04/21 02:39:53;;;;;;;;;;;;;;;;;;5093570;28;19919;-74
2021/04/21 02:42:37;;;;;;;;;;;;;;;;;;5095087;28;19915;-75
2021/04/21 02:45:12;;;;;;;;;;;;;;;;;;5095109;28;19959;-75
2021/04/21 02:47:47;;;;;;;;;;;;;;;;;;5094671;28;19911;-74
2021/04/21 02:50:17;;;;;;;;;;;;;;;;;;5094610;28;19965;-75
2021/04/21 02:53:01;;;;;;;;;;;;;;;;;;5095016;28;20349;-74
2021/04/21 02:55:41;;;;;;;;;;;;;;;;;;5094800;28;19911;-75
2021/04/21 02:58:30;;;;;;;;;;;;;;;;;;5094669;28;19915;-75
2021/04/21 03:01:25;;;;;;;;;;;;;;;;;;5094765;28;19912;-74
2021/04/21 03:04:04;;;;;;;;;;;;;;;;;;5084645;28;19916;-74
2021/04/21 03:06:32;;;;;;;;;;;;;;;;;;5093065;28;19920;-74
2021/04/21 03:09:09;;;;;;;;;;;;;;;;;;5094645;28;19912;-74
2021/04/21 03:11:34;;;;;;;;;;;;;;;;;;5093524;28;20376;-74
2021/04/21 03:14:08;;;;;;;;;;;;;;;;;;5093384;28;19912;-75
2021/04/21 03:16:38;;;;;;;;;;;;;;;;;;5093474;28;20361;-74
2021/04/21 03:19:05;;;;;;;;;;;;;;;;;;5094422;28;19946;-75
2021/04/21 03:21:32;;;;;;;;;;;;;;;;;;5093778;28;20392;-74
2021/04/21 03:24:00;;;;;;;;;;;;;;;;;;5094192;28;19919;-75
2021/04/21 03:26:27;;;;;;;;;;;;;;;;;;5093738;28;19931;-74
2021/04/21 03:28:56;;;;;;;;;;;;;;;;;;5094320;28;19912;-75
2021/04/21 03:31:22;;;;;;;;;;;;;;;;;;5094198;28;19916;-75
2021/04/21 03:33:50;;;;;;;;;;;;;;;;;;5093924;28;20366;-75
2021/04/21 03:36:17;;;;;;;;;;;;;;;;;;5094254;28;20487;-75
2021/04/21 03:38:44;;;;;;;;;;;;;;;;;;5093977;28;19919;-75
2021/04/21 03:41:09;;;;;;;;;;;;;;;;;;5093864;28;19969;-74
2021/04/21 03:43:35;;;;;;;;;;;;;;;;;;5094053;28;19915;-75
2021/04/21 03:46:01;;;;;;;;;;;;;;;;;;5094161;28;19919;-74
2021/04/21 03:48:27;;;;;;;;;;;;;;;;;;5092887;28;20389;-75
2021/04/21 03:50:54;;;;;;;;;;;;;;;;;;5094031;28;19962;-75
2021/04/21 03:53:22;;;;;;;;;;;;;;;;;;5093833;28;20019;-75
2021/04/21 03:55:48;;;;;;;;;;;;;;;;;;5093399;28;19922;-74
2021/04/21 03:58:17;;;;;;;;;;;;;;;;;;5093998;28;19991;-75
2021/04/21 04:00:45;;;;;;;;;;;;;;;;;;5093836;28;19947;-75
2021/04/21 04:03:14;;;;;;;;;;;;;;;;;;5092608;28;19948;-74
2021/04/21 04:05:46;;;;;;;;;;;;;;;;;;5094043;28;19919;-74
2021/04/21 04:08:12;;;;;;;;;;;;;;;;;;5093602;28;20373;-75
2021/04/21 04:10:40;;;;;;;;;;;;;;;;;;5092285;28;19919;-75
2021/04/21 04:13:06;;;;;;;;;;;;;;;;;;5093608;28;20361;-75
2021/04/21 04:15:32;;;;;;;;;;;;;;;;;;5093560;28;19912;-75
2021/04/21 04:18:00;;;;;;;;;;;;;;;;;;5093654;28;19912;-75
2021/04/21 04:20:28;;;;;;;;;;;;;;;;;;5092732;28;20421;-74
2021/04/21 04:22:56;;;;;;;;;;;;;;;;;;5093513;28;19926;-74
2021/04/21 04:25:23;;;;;;;;;;;;;;;;;;5093306;28;19912;-74
2021/04/21 04:27:49;;;;;;;;;;;;;;;;;;5091958;28;20301;-75
2021/04/21 04:30:15;;;;;;;;;;;;;;;;;;5092155;28;19959;-75
2021/04/21 04:32:41;;;;;;;;;;;;;;;;;;5094405;28;19997;-75
2021/04/21 04:35:08;;;;;;;;;;;;;;;;;;5097647;28;19912;-75
2021/04/21 04:37:35;;;;;;;;;;;;;;;;;;5097410;28;20015;-75
2021/04/21 04:40:01;;;;;;;;;;;;;;;;;;5097206;28;19915;-75
2021/04/21 04:42:27;;;;;;;;;;;;;;;;;;5096406;28;19923;-75
2021/04/21 04:44:53;;;;;;;;;;;;;;;;;;5097651;28;19912;-75
2021/04/21 04:47:28;;;;;;;;;;;;;;;;;;5097301;28;19916;-74
2021/04/21 04:50:05;;;;;;;;;;;;;;;;;;5097248;28;20021;-74
2021/04/21 04:52:34;;;;;;;;;;;;;;;;;;5096079;28;19912;-75
2021/04/21 04:55:00;;;;;;;;;;;;;;;;;;5095707;28;20003;-74
2021/04/21 04:57:28;;;;;;;;;;;;;;;;;;5096167;28;19912;-75
2021/04/21 04:59:58;;;;;;;;;;;;;;;;;;5096933;28;19919;-74
2021/04/21 05:02:25;;;;;;;;;;;;;;;;;;5095817;28;19916;-74
2021/04/21 05:04:57;;;;;;;;;;;;;;;;;;5095655;28;19982;-75
2021/04/21 05:07:42;;;;;;;;;;;;;;;;;;5096073;28;19912;-75
2021/04/21 05:10:13;;;;;;;;;;;;;;;;;;5096487;28;19912;-75
2021/04/21 05:12:39;;;;;;;;;;;;;;;;;;5096932;28;20366;-75
2021/04/21 05:15:07;;;;;;;;;;;;;;;;;;5096443;28;19926;-75
2021/04/21 05:17:32;;;;;;;;;;;;;;;;;;5096782;28;19912;-74
2021/04/21 05:20:00;;;;;;;;;;;;;;;;;;5096941;28;19973;-75
2021/04/21 05:22:45;;;;;;;;;;;;;;;;;;5078525;28;19916;-75
2021/04/21 05:25:29;;;;;;;;;;;;;;;;;;5077704;28;19938;-75
2021/04/21 05:28:00;;;;;;;;;;;;;;;;;;5096698;28;20417;-75
2021/04/21 05:30:44;;;;;;;;;;;;;;;;;;5096475;28;19919;-74
2021/04/21 05:33:28;;;;;;;;;;;;;;;;;;5096171;28;19920;-75
2021/04/21 05:36:08;;;;;;;;;;;;;;;;;;5096455;28;19920;-74
2021/04/21 05:38:52;;;;;;;;;;;;;;;;;;5096369;28;20000;-75
2021/04/21 05:41:36;;;;;;;;;;;;;;;;;;5074653;28;19916;-74
2021/04/21 05:44:20;;;;;;;;;;;;;;;;;;5075884;28;20396;-75
2021/04/21 05:47:04;;;;;;;;;;;;;;;;;;5075826;28;19920;-75
2021/04/21 05:49:47;;;;;;;;;;;;;;;;;;5076041;28;19912;-74
2021/04/21 05:52:14;;;;;;;;;;;;;;;;;;5076027;28;19938;-77
2021/04/21 05:54:58;;;;;;;;;;;;;;;;;;5075734;28;19978;-76
2021/04/21 05:57:43;;;;;;;;;;;;;;;;;;5074507;28;19916;-77
2021/04/21 06:00:23;;;;;;;;;;;;;;;;;;5084548;28;20397;-76
2021/04/21 06:02:49;;;;;;;;;;;;;;;;;;5094659;28;19984;-76
2021/04/21 06:05:15;;;;;;;;;;;;;;;;;;5096099;28;19911;-75
2021/04/21 06:07:41;;;;;;;;;;;;;;;;;;5094599;28;19912;-75
2021/04/21 06:10:28;;;;;;;;;;;;;;;;;;5094395;28;20010;-75
2021/04/21 06:12:55;;;;;;;;;;;;;;;;;;5095529;28;19912;-74
2021/04/21 06:15:21;;;;;;;;;;;;;;;;;;5095532;28;19916;-74
2021/04/21 06:17:51;;;;;;;;;;;;;;;;;;5095651;28;19963;-74
2021/04/21 06:20:27;;;;;;;;;;;;;;;;;;5095437;28;19946;-73
2021/04/21 06:23:03;;;;;;;;;;;;;;;;;;5095577;28;19916;-74
2021/04/21 06:25:29;;;;;;;;;;;;;;;;;;5095038;28;20384;-74
2021/04/21 06:28:14;;;;;;;;;;;;;;;;;;5095524;28;19998;-74
2021/04/21 06:30:40;;;;;;;;;;;;;;;;;;5095277;28;20006;-75
2021/04/21 06:33:07;;;;;;;;;;;;;;;;;;5094248;28;19915;-75
2021/04/21 06:35:33;;;;;;;;;;;;;;;;;;5095490;28;19912;-78
2021/04/21 06:37:59;;;;;;;;;;;;;;;;;;5096496;28;20046;-78
2021/04/21 06:40:25;;;;;;;;;;;;;;;;;;5114195;28;19915;-80
2021/04/21 06:42:51;;;;;;;;;;;;;;;;;;5117200;28;20002;-77
2021/04/21 06:45:27;;;;;;;;;;;;;;;;;;5115304;28;19918;-76
2021/04/21 06:47:53;;;;;;;;;;;;;;;;;;5114861;28;20002;-76
2021/04/21 06:50:18;;;;;;;;;;;;;;;;;;5115135;28;20381;-77
2021/04/21 06:52:44;;;;;;;;;;;;;;;;;;5114429;28;19941;-76
2021/04/21 06:55:17;;;;;;;;;;;;;;;;;;5100336;28;20346;-76
2021/04/21 06:57:42;;;;;;;;;;;;;;;;;;5094737;28;19954;-77
2021/04/21 07:00:08;;;;;;;;;;;;;;;;;;5094763;28;20293;-77
2021/04/21 07:02:43;;;;;;;;;;;;;;;;;;5094200;28;19912;-77
2021/04/21 07:05:30;;;;;;;;;;;;;;;;;;5095047;28;20368;-77
2021/04/21 07:08:02;;;;;;;;;;;;;;;;;;5094752;28;19912;-77
2021/04/21 07:10:28;;;;;;;;;;;;;;;;;;5098233;28;19954;-79
2021/04/21 07:12:54;;;;;;;;;;;;;;;;;;5110781;28;19908;-78
2021/04/21 07:15:20;;;;;;;;;;;;;;;;;;5106937;28;20415;-80
2021/04/21 07:17:47;;;;;;;;;;;;;;;;;;5098181;28;20014;-77
2021/04/21 07:20:13;;;;;;;;;;;;;;;;;;5094459;28;19911;-77
2021/04/21 07:22:38;;;;;;;;;;;;;;;;;;5094205;28;20022;-78
2021/04/21 07:25:04;;;;;;;;;;;;;;;;;;5094254;28;20036;-77
2021/04/21 07:27:29;;;;;;;;;;;;;;;;;;5093049;28;19950;-77
2021/04/21 07:29:55;;;;;;;;;;;;;;;;;;5094286;28;20374;-77
2021/04/21 07:32:21;;;;;;;;;;;;;;;;;;5094358;28;19973;-77
2021/04/21 07:34:56;;;;;;;;;;;;;;;;;;5093734;28;20008;-76
2021/04/21 07:37:31;;;;;;;;;;;;;;;;;;5093792;28;19955;-77
2021/04/21 07:39:56;;;;;;;;;;;;;;;;;;5094170;28;19912;-77
2021/04/21 07:42:21;;;;;;;;;;;;;;;;;;5094047;28;20326;-77
2021/04/21 07:44:51;;;;;;;;;;;;;;;;;;5094314;28;19918;-77
2021/04/21 07:47:17;;;;;;;;;;;;;;;;;;5092938;28;19919;-78
2021/04/21 07:49:52;;;;;;;;;;;;;;;;;;5094183;28;19947;-78
2021/04/21 07:52:22;;;;;;;;;;;;;;;;;;5092741;28;19919;-77
2021/04/21 07:54:47;;;;;;;;;;;;;;;;;;5094222;28;19957;-78
2021/04/21 07:57:16;;;;;;;;;;;;;;;;;;5094166;28;19912;-77
2021/04/21 07:59:43;;;;;;;;;;;;;;;;;;5094338;28;19959;-78
2021/04/21 08:02:13;;;;;;;;;;;;;;;;;;5093039;28;19966;-78
2021/04/21 08:05:04;;;;;;;;;;;;;;;;;;5093663;28;19912;-78
2021/04/21 08:07:31;;;;;;;;;;;;;;;;;;5093008;28;20462;-78
2021/04/21 08:09:58;;;;;;;;;;;;;;;;;;5093611;28;20370;-78
2021/04/21 08:12:30;;;;;;;;;;;;;;;;;;5095398;28;19919;-80
2021/04/21 08:15:00;;;;;;;;;;;;;;;;;;5095356;28;19943;-78
2021/04/21 08:17:25;;;;;;;;;;;;;;;;;;5095461;28;19912;-79
2021/04/21 08:19:57;;;;;;;;;;;;;;;;;;5096016;28;19912;-81
2021/04/21 08:22:26;;;;;;;;;;;;;;;;;;5097422;28;20013;-78
2021/04/21 08:24:52;;;;;;;;;;;;;;;;;;5096739;28;19911;-78
2021/04/21 08:27:18;;;;;;;;;;;;;;;;;;5095396;28;19912;-80
2021/04/21 08:29:45;;;;;;;;;;;;;;;;;;5096612;28;19919;-77
2021/04/21 08:32:11;;;;;;;;;;;;;;;;;;5097220;28;19926;-80
2021/04/21 08:34:36;;;;;;;;;;;;;;;;;;5095171;28;19912;-79
2021/04/21 08:37:02;;;;;;;;;;;;;;;;;;5094882;28;20011;-79
2021/04/21 08:39:27;;;;;;;;;;;;;;;;;;5088061;28;20366;-79
2021/04/21 08:41:59;;;;;;;;;;;;;;;;;;5076588;28;19922;-78
2021/04/21 08:44:26;;;;;;;;;;;;;;;;;;5058111;28;19912;-84
2021/04/21 08:46:53;;;;;;;;;;;;;;;;;;5077335;28;19912;-83
2021/04/21 08:49:21;;;;;;;;;;;;;;;;;;5074765;28;20381;-85
2021/04/21 08:51:46;;;;;;;;;;;;;;;;;;5074959;28;19912;-83
2021/04/21 08:54:12;;;;;;;;;;;;;;;;;;5074135;28;19912;-83
2021/04/21 08:56:40;;;;;;;;;;;;;;;;;;5075892;28;19912;-83
2021/04/21 08:59:07;;;;;;;;;;;;;;;;;;5075985;28;19916;-82
2021/04/21 09:01:32;;;;;;;;;;;;;;;;;;5075442;28;19923;-83
2021/04/21 09:03:58;;;;;;;;;;;;;;;;;;5101093;28;20373;-84
2021/04/21 09:06:23;;;;;;;;;;;;;;;;;;5114454;28;19912;-79
2021/04/21 09:08:51;;;;;;;;;;;;;;;;;;5115754;28;19919;-79
2021/04/21 09:11:16;;;;;;;;;;;;;;;;;;5101773;28;19912;-80
2021/04/21 09:13:42;;;;;;;;;;;;;;;;;;5095977;28;19912;-78
2021/04/21 09:16:07;;;;;;;;;;;;;;;;;;5094684;28;19912;-79
2021/04/21 09:18:34;;;;;;;;;;;;;;;;;;5096046;28;19945;-79
2021/04/21 09:21:00;;;;;;;;;;;;;;;;;;5098095;28;19918;-79
2021/04/21 09:23:34;;;;;;;;;;;;;;;;;;5099471;28;20356;-80
2021/04/21 09:25:59;;;;;;;;;;;;;;;;;;5097353;28;20429;-79
2021/04/21 09:28:24;;;;;;;;;;;;;;;;;;5099304;28;19954;-79
2021/04/21 09:30:51;;;;;;;;;;;;;;;;;;5100309;28;19919;-79
2021/04/21 09:33:16;;;;;;;;;;;;;;;;;;5099280;28;19916;-79
2021/04/21 09:35:43;;;;;;;;;;;;;;;;;;5098936;28;19919;-79
2021/04/21 09:38:16;;;;;;;;;;;;;;;;;;5098256;28;19915;-80
2021/04/21 09:40:45;;;;;;;;;;;;;;;;;;5109836;28;19911;-80
2021/04/21 09:43:17;;;;;;;;;;;;;;;;;;5121564;28;19920;-81
2021/04/21 09:45:50;;;;;;;;;;;;;;;;;;5121527;28;19912;-79
2021/04/21 09:48:17;;;;;;;;;;;;;;;;;;5121525;28;19912;-80
2021/04/21 09:50:44;;;;;;;;;;;;;;;;;;5119578;28;19937;-79
2021/04/21 09:53:23;;;;;;;;;;;;;;;;;;5121069;28;19911;-79
2021/04/21 09:55:57;;;;;;;;;;;;;;;;;;5120712;28;19911;-80
2021/04/21 09:58:30;;;;;;;;;;;;;;;;;;5120711;28;19915;-79
2021/04/21 10:00:55;;;;;;;;;;;;;;;;;;5119300;28;19916;-79
2021/04/21 10:03:20;;;;;;;;;;;;;;;;;;5107619;28;20122;-79
2021/04/21 10:05:46;;;;;;;;;;;;;;;;;;5080044;28;19912;-79
2021/04/21 10:08:18;;;;;;;;;;;;;;;;;;5080135;28;20285;-79
2021/04/21 10:10:45;;;;;;;;;;;;;;;;;;5090676;28;19918;-79
2021/04/21 10:13:15;;;;;;;;;;;;;;;;;;5098260;28;19916;-77
2021/04/21 10:15:40;;;;;;;;;;;;;;;;;;5096819;28;20004;-77
2021/04/21 10:18:08;;;;;;;;;;;;;;;;;;5095876;28;19950;-77
2021/04/21 10:20:33;;;;;;;;;;;;;;;;;;5095824;28;19956;-77
2021/04/21 10:22:59;;;;;;;;;;;;;;;;;;5094562;28;20027;-77
2021/04/21 10:25:25;;;;;;;;;;;;;;;;;;5095409;28;19918;-77
2021/04/21 10:27:51;;;;;;;;;;;;;;;;;;5094306;28;19922;-77
2021/04/21 10:30:16;;;;;;;;;;;;;;;;;;5094138;28;19912;-77
2021/04/21 10:32:41;;;;;;;;;;;;;;;;;;5095692;28;20369;-76
2021/04/21 10:35:07;;;;;;;;;;;;;;;;;;5095458;28;19966;-76
2021/04/21 10:37:33;;;;;;;;;;;;;;;;;;5096064;28;19943;-77
2021/04/21 10:39:59;;;;;;;;;;;;;;;;;;5095119;28;20310;-77
2021/04/21 10:42:24;;;;;;;;;;;;;;;;;;5101263;28;19954;-82
2021/04/21 10:44:51;;;;;;;;;;;;;;;;;;5106314;28;19915;-81
2021/04/21 10:47:22;;;;;;;;;;;;;;;;;;5107678;28;19912;-81
2021/04/21 10:49:48;;;;;;;;;;;;;;;;;;5105791;28;19935;-80
2021/04/21 10:52:15;;;;;;;;;;;;;;;;;;5101343;28;20373;-82
2021/04/21 10:54:41;;;;;;;;;;;;;;;;;;5099796;28;19923;-81
2021/04/21 10:57:21;;;;;;;;;;;;;;;;;;5098674;28;19961;-82
2021/04/21 11:00:07;;;;;;;;;;;;;;;;;;5081243;28;19919;-80
2021/04/21 11:02:45;;;;;;;;;;;;;;;;;;5085080;28;19923;-79
2021/04/21 11:05:15;;;;;;;;;;;;;;;;;;5085885;28;19913;-79
2021/04/21 11:07:41;;;;;;;;;;;;;;;;;;5085430;28;19938;-79
2021/04/21 11:10:07;;;;;;;;;;;;;;;;;;5084695;28;19938;-78
2021/04/21 11:12:52;;;;;;;;;;;;;;;;;;5089763;28;19912;-78
2021/04/21 11:15:34;;;;;;;;;;;;;;;;;;5103506;28;19919;-78
2021/04/21 11:18:12;;;;;;;;;;;;;;;;;;5103652;28;19958;-79
2021/04/21 11:20:46;;;;;;;;;;;;;;;;;;5104645;28;19911;-79
2021/04/21 11:23:30;;;;;;;;;;;;;;;;;;5101799;28;20061;-79
2021/04/21 11:26:14;;;;;;;;;;;;;;;;;;5103209;28;20414;-78
2021/04/21 11:28:59;;;;;;;;;;;;;;;;;;5103154;28;19923;-79
2021/04/21 11:31:49;;;;;;;;;;;;;;;;;;5104300;28;19951;-79
2021/04/21 11:34:24;;;;;;;;;;;;;;;;;;5104882;28;19912;-80
2021/04/21 11:36:50;;;;;;;;;;;;;;;;;;5101157;28;19912;-78
2021/04/21 11:39:35;;;;;;;;;;;;;;;;;;5096763;28;19923;-76
2021/04/21 11:42:20;;;;;;;;;;;;;;;;;;5093594;28;19919;-76
2021/04/21 11:44:49;;;;;;;;;;;;;;;;;;5094301;28;19911;-76
2021/04/21 11:47:33;;;;;;;;;;;;;;;;;;5094128;28;20021;-76
2021/04/21 11:50:01;;;;;;;;;;;;;;;;;;5094143;28;19951;-77
2021/04/21 11:52:45;;;;;;;;;;;;;;;;;;5092961;28;19912;-76
2021/04/21 11:55:18;;;;;;;;;;;;;;;;;;5093955;28;19916;-76
2021/04/21 11:57:49;;;;;;;;;;;;;;;;;;5093634;28;20294;-76
2021/04/21 12:00:15;;;;;;;;;;;;;;;;;;5093925;28;19912;-76
2021/04/21 12:02:40;;;;;;;;;;;;;;;;;;5094164;28;19923;-76
2021/04/21 12:05:06;;;;;;;;;;;;;;;;;;5092862;28;20333;-77
2021/04/21 12:07:31;;;;;;;;;;;;;;;;;;5094048;28;19912;-76
2021/04/21 12:09:59;;;;;;;;;;;;;;;;;;5093904;28;20362;-77
2021/04/21 12:12:25;;;;;;;;;;;;;;;;;;5092336;28;20431;-77
2021/04/21 12:15:03;;;;;;;;;;;;;;;;;;5092961;28;19959;-77
2021/04/21 12:17:29;;;;;;;;;;;;;;;;;;5093699;28;20038;-76
2021/04/21 12:19:54;;;;;;;;;;;;;;;;;;5092715;28;19959;-77
2021/04/21 12:22:19;;;;;;;;;;;;;;;;;;5094015;28;19919;-77
2021/04/21 12:24:45;;;;;;;;;;;;;;;;;;5093638;28;19955;-76
2021/04/21 12:27:25;;;;;;;;;;;;;;;;;;5093776;28;19924;-76
2021/04/21 12:29:51;;;;;;;;;;;;;;;;;;5093757;28;19961;-76
2021/04/21 12:32:25;;;;;;;;;;;;;;;;;;5093630;28;19919;-76
2021/04/21 12:34:50;;;;;;;;;;;;;;;;;;5093755;28;19969;-77
2021/04/21 12:37:20;;;;;;;;;;;;;;;;;;5093476;28;19912;-77
2021/04/21 12:39:45;;;;;;;;;;;;;;;;;;5093368;28;19920;-77
2021/04/21 12:42:15;;;;;;;;;;;;;;;;;;5092614;28;19916;-77
2021/04/21 12:44:40;;;;;;;;;;;;;;;;;;5093677;28;20018;-76
2021/04/21 12:47:07;;;;;;;;;;;;;;;;;;5093659;28;19962;-76
2021/04/21 12:49:40;;;;;;;;;;;;;;;;;;5093337;28;19938;-76
2021/04/21 12:52:06;;;;;;;;;;;;;;;;;;5093442;28;19916;-76
2021/04/21 12:54:36;;;;;;;;;;;;;;;;;;5095708;28;19912;-76
2021/04/21 12:57:03;;;;;;;;;;;;;;;;;;5097118;28;19921;-77
2021/04/21 12:59:37;;;;;;;;;;;;;;;;;;5097072;28;19912;-77
2021/04/21 13:02:02;;;;;;;;;;;;;;;;;;5097240;28;19916;-77
2021/04/21 13:04:37;;;;;;;;;;;;;;;;;;5096114;28;20275;-76
2021/04/21 13:07:18;;;;;;;;;;;;;;;;;;5097235;28;20277;-76
2021/04/21 13:09:44;;;;;;;;;;;;;;;;;;5095980;28;20267;-77
2021/04/21 13:12:15;;;;;;;;;;;;;;;;;;5095716;28;19962;-77
2021/04/21 13:14:41;;;;;;;;;;;;;;;;;;5095667;28;19922;-77
2021/04/21 13:17:08;;;;;;;;;;;;;;;;;;5095581;28;19919;-76
2021/04/21 13:19:34;;;;;;;;;;;;;;;;;;5096858;28;19947;-76
2021/04/21 13:22:05;;;;;;;;;;;;;;;;;;5095824;28;19923;-77
2021/04/21 13:24:40;;;;;;;;;;;;;;;;;;5096567;28;19919;-76
2021/04/21 13:27:17;;;;;;;;;;;;;;;;;;5095452;28;19919;-76
2021/04/21 13:29:43;;;;;;;;;;;;;;;;;;5095701;28;20393;-76
2021/04/21 13:32:10;;;;;;;;;;;;;;;;;;5097039;28;19916;-76
2021/04/21 13:34:35;;;;;;;;;;;;;;;;;;5097102;28;20346;-76
2021/04/21 13:37:01;;;;;;;;;;;;;;;;;;5092899;28;20028;-77
2021/04/21 13:39:27;;;;;;;;;;;;;;;;;;5083342;28;19918;-78
2021/04/21 13:41:52;;;;;;;;;;;;;;;;;;5096849;28;20274;-77
2021/04/21 13:44:17;;;;;;;;;;;;;;;;;;5096777;28;19919;-77
2021/04/21 13:46:42;;;;;;;;;;;;;;;;;;5096502;28;19916;-77
2021/04/21 13:49:08;;;;;;;;;;;;;;;;;;5095512;28;19912;-77
2021/04/21 13:51:33;;;;;;;;;;;;;;;;;;5096044;28;19911;-77
2021/04/21 13:53:58;;;;;;;;;;;;;;;;;;5096540;28;19919;-77
2021/04/21 13:56:24;;;;;;;;;;;;;;;;;;5095507;28;20315;-77
2021/04/21 13:58:49;;;;;;;;;;;;;;;;;;5093591;28;20357;-77
2021/04/21 14:01:14;;;;;;;;;;;;;;;;;;5095075;28;19957;-77
2021/04/21 14:03:39;;;;;;;;;;;;;;;;;;5094545;28;19919;-77
2021/04/21 14:06:05;;;;;;;;;;;;;;;;;;5096036;28;19912;-77
2021/04/21 14:08:30;;;;;;;;;;;;;;;;;;5095909;28;19950;-77
2021/04/21 14:10:55;;;;;;;;;;;;;;;;;;5094508;28;20062;-77
2021/04/21 14:13:21;;;;;;;;;;;;;;;;;;5095709;28;19934;-77
2021/04/21 14:15:46;;;;;;;;;;;;;;;;;;5095746;28;19947;-77
2021/04/21 14:18:11;;;;;;;;;;;;;;;;;;5077639;28;20366;-77
2021/04/21 14:20:37;;;;;;;;;;;;;;;;;;5095544;28;19916;-77
2021/04/21 14:23:03;;;;;;;;;;;;;;;;;;5095565;28;20434;-77
2021/04/21 14:25:28;;;;;;;;;;;;;;;;;;5095292;28;19927;-77
2021/04/21 14:27:54;;;;;;;;;;;;;;;;;;5095390;28;19912;-77
2021/04/21 14:30:19;;;;;;;;;;;;;;;;;;5095499;28;19912;-77
2021/04/21 14:32:45;;;;;;;;;;;;;;;;;;5095360;28;19978;-77
2021/04/21 14:35:11;;;;;;;;;;;;;;;;;;5095464;28;19922;-76
2021/04/21 14:37:37;;;;;;;;;;;;;;;;;;5095246;28;19915;-77
2021/04/21 14:40:03;;;;;;;;;;;;;;;;;;5094864;28;19919;-77
2021/04/21 14:42:29;;;;;;;;;;;;;;;;;;5093907;28;19916;-77
2021/04/21 14:44:54;;;;;;;;;;;;;;;;;;5095265;28;19912;-77
2021/04/21 14:47:19;;;;;;;;;;;;;;;;;;5095332;28;19916;-77
2021/04/21 14:49:45;;;;;;;;;;;;;;;;;;5095178;28;20273;-76
2021/04/21 14:52:10;;;;;;;;;;;;;;;;;;5093963;28;19916;-77
2021/04/21 14:54:35;;;;;;;;;;;;;;;;;;5093673;28;20361;-76
2021/04/21 14:57:02;;;;;;;;;;;;;;;;;;5093227;28;19912;-77
2021/04/21 14:59:27;;;;;;;;;;;;;;;;;;5094893;28;19955;-76
2021/04/21 15:01:53;;;;;;;;;;;;;;;;;;5094162;28;19988;-76
2021/04/21 15:04:18;;;;;;;;;;;;;;;;;;5094684;28;20002;-77
2021/04/21 15:06:47;;;;;;;;;;;;;;;;;;5094794;28;20414;-77
2021/04/21 15:09:13;;;;;;;;;;;;;;;;;;5093496;28;20377;-77
2021/04/21 15:11:38;;;;;;;;;;;;;;;;;;5093606;28;19916;-77
2021/04/21 15:14:04;;;;;;;;;;;;;;;;;;5094433;28;19912;-77
2021/04/21 15:16:29;;;;;;;;;;;;;;;;;;5093852;28;20003;-76
2021/04/21 15:18:55;;;;;;;;;;;;;;;;;;5076281;28;19912;-77
2021/04/21 15:21:24;;;;;;;;;;;;;;;;;;5094559;28;20311;-77
2021/04/21 15:23:51;;;;;;;;;;;;;;;;;;5094074;28;20243;-77
2021/04/21 15:26:16;;;;;;;;;;;;;;;;;;5093833;28;19912;-77
2021/04/21 15:28:41;;;;;;;;;;;;;;;;;;5094591;28;19919;-77
2021/04/21 15:31:07;;;;;;;;;;;;;;;;;;5094490;28;20294;-77
2021/04/21 15:33:32;;;;;;;;;;;;;;;;;;5094611;28;19922;-77
2021/04/21 15:35:58;;;;;;;;;;;;;;;;;;5091817;28;20058;-77
2021/04/21 15:38:24;;;;;;;;;;;;;;;;;;5093387;28;20077;-77
2021/04/21 15:40:51;;;;;;;;;;;;;;;;;;5094483;28;19964;-77
2021/04/21 15:43:17;;;;;;;;;;;;;;;;;;5094035;28;19916;-76
2021/04/21 15:45:42;;;;;;;;;;;;;;;;;;5094345;28;20487;-77
2021/04/21 15:48:08;;;;;;;;;;;;;;;;;;5094479;28;20025;-77
2021/04/21 15:50:34;;;;;;;;;;;;;;;;;;5094188;28;19908;-77
2021/04/21 15:52:59;;;;;;;;;;;;;;;;;;5093165;28;20388;-77
2021/04/21 15:55:26;;;;;;;;;;;;;;;;;;5074899;28;20034;-77
2021/04/21 15:57:54;;;;;;;;;;;;;;;;;;5094169;28;19919;-77
2021/04/21 16:00:20;;;;;;;;;;;;;;;;;;5095181;28;20331;-77
2021/04/21 16:02:50;;;;;;;;;;;;;;;;;;5094563;28;20364;-78
2021/04/21 16:05:16;;;;;;;;;;;;;;;;;;5094839;28;20002;-78
2021/04/21 16:07:44;;;;;;;;;;;;;;;;;;5094721;28;19912;-80
2021/04/21 16:10:14;;;;;;;;;;;;;;;;;;5096246;28;19912;-80
2021/04/21 16:12:39;;;;;;;;;;;;;;;;;;5097089;28;19911;-80
2021/04/21 16:15:05;;;;;;;;;;;;;;;;;;5095527;28;20002;-81
2021/04/21 16:17:31;;;;;;;;;;;;;;;;;;5093796;28;19963;-77
2021/04/21 16:19:56;;;;;;;;;;;;;;;;;;5097141;28;19912;-80
2021/04/21 16:22:21;;;;;;;;;;;;;;;;;;5096789;28;19916;-75
2021/04/21 16:24:46;;;;;;;;;;;;;;;;;;5091500;28;19973;-76
2021/04/21 16:27:12;;;;;;;;;;;;;;;;;;5092306;28;19912;-79
2021/04/21 16:29:37;;;;;;;;;;;;;;;;;;5096497;28;19955;-77
2021/04/21 16:32:02;;;;;;;;;;;;;;;;;;5115435;28;20414;-78
2021/04/21 16:34:28;;;;;;;;;;;;;;;;;;5103433;28;19918;-76
2021/04/21 16:36:53;;;;;;;;;;;;;;;;;;5098838;28;20286;-83
2021/04/21 16:39:18;;;;;;;;;;;;;;;;;;5080904;28;19912;-82
2021/04/21 16:41:44;;;;;;;;;;;;;;;;;;5099681;28;20404;-79
2021/04/21 16:44:09;;;;;;;;;;;;;;;;;;5099709;28;19956;-80
2021/04/21 16:46:35;;;;;;;;;;;;;;;;;;5099444;28;19919;-81
2021/04/21 16:49:00;;;;;;;;;;;;;;;;;;5100194;28;19912;-82
2021/04/21 16:51:25;;;;;;;;;;;;;;;;;;5098308;28;19918;-79
2021/04/21 16:53:50;;;;;;;;;;;;;;;;;;5099109;28;19912;-79
2021/04/21 18:28:07;;;;;;;20.35;5.93;;;;;;;;;;5110963;27;20366;-77
2021/04/21 18:30:35;;;;;;;10.82;3.85;;;;;;;;;;5111698;28;20028;-77